Time;durP1;ratioP1;P1;durP2;ratioP2;P2;SDS_P1;SDS_P2;PMS_P1;PMS_P2;Temp;Humidity;BMP_temperature;BMP_pressure;BME280_temperature;BME280_humidity;BME280_pressure;Samples;Min_cycle;Max_cycle;Signal;HPM_P1;HPM_P2
2022/05/04 00:01:13;;;;;;;10.05;6.25;;;13.60;99.90;;;;;;5080156;28;20050;-87
2022/05/04 00:03:39;;;;;;;8.75;6.50;;;13.60;99.90;;;;;;5081466;28;20108;-86
2022/05/04 00:06:06;;;;;;;10.82;5.93;;;13.60;99.90;;;;;;5081934;28;20078;-87
2022/05/04 00:08:32;;;;;;;14.35;5.70;;;13.70;99.90;;;;;;5099476;28;20012;-85
2022/05/04 00:10:59;;;;;;;12.02;6.90;;;13.70;99.90;;;;;;5100069;28;20078;-85
2022/05/04 00:13:25;;;;;;;9.27;6.20;;;13.70;99.90;;;;;;5100268;28;20027;-84
2022/05/04 00:15:51;;;;;;;8.48;5.45;;;13.80;99.90;;;;;;5100685;28;20048;-84
2022/05/04 00:18:17;;;;;;;8.90;6.28;;;13.90;99.90;;;;;;5083300;28;20020;-85
2022/05/04 00:20:43;;;;;;;8.20;5.55;;;13.90;99.90;;;;;;5100630;28;20096;-84
2022/05/04 00:23:09;;;;;;;9.82;6.18;;;13.90;99.90;;;;;;5083350;28;20032;-83
2022/05/04 00:25:35;;;;;;;12.45;6.72;;;14.00;99.90;;;;;;5100768;28;20020;-82
2022/05/04 00:28:02;;;;;;;12.20;7.45;;;14.00;99.90;;;;;;5100601;28;20008;-83
2022/05/04 00:30:29;;;;;;;15.15;8.85;;;14.00;99.90;;;;;;5100679;28;20024;-83
2022/05/04 00:32:54;;;;;;;13.80;9.13;;;14.00;99.90;;;;;;5100726;28;20005;-84
2022/05/04 00:35:20;;;;;;;10.48;8.23;;;14.00;99.90;;;;;;5099972;28;20016;-84
2022/05/04 00:37:46;;;;;;;15.75;8.40;;;14.00;99.90;;;;;;5100414;28;20009;-83
2022/05/04 00:40:12;;;;;;;10.55;7.13;;;14.00;99.90;;;;;;5083186;28;20035;-84
2022/05/04 00:42:38;;;;;;;9.38;7.22;;;14.00;99.90;;;;;;5100634;28;20020;-83
2022/05/04 00:45:04;;;;;;;11.45;6.85;;;14.00;99.90;;;;;;5100355;28;20052;-84
2022/05/04 00:47:30;;;;;;;12.98;7.55;;;14.00;99.90;;;;;;5066237;28;20026;-83
2022/05/04 00:49:56;;;;;;;11.65;7.50;;;14.00;99.90;;;;;;5099900;28;20016;-85
2022/05/04 00:52:23;;;;;;;13.45;6.97;;;14.00;99.90;;;;;;5100207;28;20031;-84
2022/05/04 00:54:51;;;;;;;13.38;6.82;;;14.00;99.90;;;;;;5082803;28;20017;-85
2022/05/04 00:58:54;;;;;;;13.35;7.72;;;14.00;99.90;;;;;;5100181;28;20024;-85
2022/05/04 01:00:06;;;;;;;8.50;6.68;;;14.10;99.90;;;;;;5099744;28;20029;-83
2022/05/04 01:02:32;;;;;;;9.32;7.20;;;14.10;99.90;;;;;;5065904;28;20021;-84
2022/05/04 01:04:58;;;;;;;12.32;7.43;;;14.10;99.90;;;;;;5099885;28;20054;-85
2022/05/04 01:07:24;;;;;;;11.98;7.28;;;14.00;99.90;;;;;;5099699;28;20034;-84
2022/05/04 01:09:50;;;;;;;12.68;8.07;;;14.00;99.90;;;;;;5099462;28;20021;-84
2022/05/04 01:12:21;;;;;;;10.68;7.45;;;14.00;99.90;;;;;;5099757;28;20013;-86
2022/05/04 01:14:47;;;;;;;16.83;7.75;;;14.00;99.90;;;;;;5082731;28;20100;-84
2022/05/04 01:17:13;;;;;;;9.95;7.80;;;14.00;99.90;;;;;;5082723;28;20011;-84
2022/05/04 01:19:39;;;;;;;10.13;7.75;;;14.10;99.90;;;;;;5082477;28;20032;-84
2022/05/04 01:22:04;;;;;;;10.48;7.82;;;14.00;99.90;;;;;;5082380;28;20021;-84
2022/05/04 01:24:30;;;;;;;9.85;7.65;;;14.00;99.90;;;;;;5078351;28;20033;-84
2022/05/04 01:26:56;;;;;;;11.57;7.63;;;14.10;99.90;;;;;;5095975;28;20012;-84
2022/05/04 01:29:21;;;;;;;13.85;7.53;;;14.00;99.90;;;;;;5098586;28;20036;-85
2022/05/04 01:31:47;;;;;;;11.25;7.40;;;14.00;99.90;;;;;;5099025;28;20048;-83
2022/05/04 01:34:13;;;;;;;8.35;6.50;;;14.00;99.90;;;;;;5081722;28;20031;-83
2022/05/04 01:36:39;;;;;;;8.25;6.65;;;14.00;99.90;;;;;;5099017;28;20067;-83
2022/05/04 01:39:05;;;;;;;10.80;7.18;;;14.00;99.90;;;;;;5098643;28;20025;-84
2022/05/04 01:44:16;;;;;;;9.15;6.97;;;13.90;99.90;;;;;;5098951;28;20084;-84
2022/05/04 01:46:41;;;;;;;9.48;6.63;;;13.80;99.90;;;;;;5098569;28;20051;-83
2022/05/04 01:49:07;;;;;;;9.45;7.38;;;13.80;99.90;;;;;;5090556;22;20042;-86
2022/05/04 01:51:33;;;;;;;10.00;7.65;;;13.80;99.90;;;;;;5005798;28;20041;-85
2022/05/04 01:53:59;;;;;;;9.95;7.72;;;13.70;99.90;;;;;;5045176;28;20128;-86
2022/05/04 01:56:24;;;;;;;11.18;7.43;;;13.60;99.90;;;;;;5041833;28;20025;-85
2022/05/04 01:58:50;;;;;;;11.00;7.97;;;13.60;99.90;;;;;;5040274;28;20112;-84
2022/05/04 02:01:16;;;;;;;11.85;7.45;;;13.60;99.90;;;;;;5047440;28;20356;-85
2022/05/04 02:03:42;;;;;;;9.82;7.75;;;13.50;99.90;;;;;;5037315;28;20034;-84
2022/05/04 02:06:08;;;;;;;10.38;8.13;;;13.40;99.90;;;;;;5054260;28;20529;-83
2022/05/04 02:08:35;;;;;;;11.07;7.50;;;13.40;99.90;;;;;;5034771;28;20080;-84
2022/05/04 02:11:01;;;;;;;15.95;8.15;;;13.30;99.90;;;;;;5019809;28;20029;-83
2022/05/04 02:13:27;;;;;;;12.60;8.02;;;13.30;99.90;;;;;;5052177;28;20049;-85
2022/05/04 02:15:53;;;;;;;14.00;8.82;;;13.30;99.90;;;;;;5014272;28;20022;-85
2022/05/04 02:18:18;;;;;;;14.50;9.15;;;13.20;99.90;;;;;;5020422;28;20476;-84
2022/05/04 02:20:44;;;;;;;12.18;8.77;;;13.20;99.90;;;;;;5057146;28;20045;-84
2022/05/04 02:23:10;;;;;;;13.43;8.73;;;13.10;99.90;;;;;;5041101;28;20029;-84
2022/05/04 02:25:35;;;;;;;13.13;8.60;;;13.10;99.90;;;;;;5057903;28;20017;-85
2022/05/04 02:28:01;;;;;;;11.35;8.57;;;13.10;99.90;;;;;;5057515;28;20021;-86
2022/05/04 02:30:27;;;;;;;13.80;8.98;;;13.10;99.90;;;;;;5057439;28;20025;-85
2022/05/04 02:32:53;;;;;;;10.77;8.85;;;13.10;99.90;;;;;;5047407;28;20041;-85
2022/05/04 02:38:03;;;;;;;13.60;9.70;;;13.00;99.90;;;;;;5050495;28;20033;-84
2022/05/04 02:40:28;;;;;;;14.52;9.48;;;13.10;99.90;;;;;;5035302;28;20092;-84
2022/05/04 02:42:54;;;;;;;15.32;9.70;;;13.10;99.90;;;;;;5048440;28;20036;-86
2022/05/04 02:45:20;;;;;;;15.98;9.85;;;13.10;99.90;;;;;;5049511;28;20013;-84
2022/05/04 02:47:46;;;;;;;14.77;9.70;;;13.10;99.90;;;;;;5039618;28;20021;-85
2022/05/04 02:50:12;;;;;;;15.63;10.45;;;13.10;99.90;;;;;;5046725;28;20089;-85
2022/05/04 02:52:38;;;;;;;14.63;10.15;;;13.20;99.90;;;;;;5025449;28;20045;-86
2022/05/04 02:55:05;;;;;;;14.60;9.85;;;13.10;99.90;;;;;;5047113;28;20091;-85
2022/05/04 02:57:30;;;;;;;14.75;9.45;;;13.20;99.90;;;;;;5045517;28;20546;-86
2022/05/04 02:59:56;;;;;;;14.30;9.52;;;13.20;99.90;;;;;;5045386;28;20034;-82
2022/05/04 03:02:28;;;;;;;16.23;9.07;;;13.20;99.90;;;;;;5032581;28;20105;-86
2022/05/04 03:04:59;;;;;;;17.77;9.57;;;13.30;99.90;;;;;;5047249;28;20018;-86
2022/05/04 03:07:26;;;;;;;14.65;8.88;;;13.30;99.90;;;;;;5046077;28;20018;-85
2022/05/04 03:09:53;;;;;;;12.88;9.50;;;13.20;99.90;;;;;;5044325;28;20103;-84
2022/05/04 03:12:19;;;;;;;12.73;9.10;;;13.20;99.90;;;;;;5026948;28;20116;-85
2022/05/04 03:14:45;;;;;;;14.05;9.57;;;13.20;99.90;;;;;;5044939;28;20040;-84
2022/05/04 03:17:11;;;;;;;15.63;9.88;;;13.20;99.90;;;;;;5029445;28;20040;-84
2022/05/04 03:19:36;;;;;;;13.10;9.77;;;13.20;99.90;;;;;;5047951;28;20085;-86
2022/05/04 03:22:02;;;;;;;11.68;9.07;;;13.20;99.90;;;;;;5045539;28;20025;-85
2022/05/04 03:24:28;;;;;;;16.38;9.38;;;13.30;99.90;;;;;;5031702;28;20035;-83
2022/05/04 03:26:54;;;;;;;16.23;9.73;;;13.30;99.90;;;;;;5048258;28;20061;-84
2022/05/04 03:29:20;;;;;;;14.13;10.05;;;13.30;99.90;;;;;;5033486;28;20033;-83
2022/05/04 03:31:45;;;;;;;13.77;9.80;;;13.20;99.90;;;;;;5053689;28;20407;-86
2022/05/04 03:34:11;;;;;;;15.85;9.80;;;13.20;99.90;;;;;;5052910;28;20037;-82
2022/05/04 03:36:37;;;;;;;15.38;10.20;;;13.20;99.90;;;;;;5047974;28;20029;-86
2022/05/04 03:39:04;;;;;;;15.70;10.25;;;13.20;99.90;;;;;;5047315;28;20040;-85
2022/05/04 03:41:29;;;;;;;14.95;10.15;;;13.20;99.90;;;;;;5033818;28;20033;-85
2022/05/04 03:43:55;;;;;;;13.35;9.63;;;13.20;99.90;;;;;;5059480;28;20037;-83
2022/05/04 03:46:23;;;;;;;14.30;8.60;;;13.20;99.90;;;;;;5059637;28;20034;-84
2022/05/04 03:48:51;;;;;;;16.77;10.05;;;13.20;99.90;;;;;;5058883;28;20029;-85
2022/05/04 03:51:19;;;;;;;14.88;10.25;;;13.20;99.90;;;;;;5041795;28;20025;-84
2022/05/04 03:53:49;;;;;;;14.60;9.65;;;13.20;99.90;;;;;;5041423;28;20036;-85
2022/05/04 03:56:15;;;;;;;13.43;8.88;;;13.20;99.90;;;;;;5041529;28;20026;-84
2022/05/04 03:58:42;;;;;;;14.75;10.30;;;13.30;99.90;;;;;;5056368;28;20029;-83
2022/05/04 04:01:07;;;;;;;19.38;9.90;;;13.30;99.90;;;;;;5058244;28;20034;-84
2022/05/04 04:03:34;;;;;;;12.00;9.15;;;13.30;99.90;;;;;;5060391;28;20035;-84
2022/05/04 04:05:59;;;;;;;17.73;10.23;;;13.30;99.90;;;;;;5059680;28;20021;-83
2022/05/04 04:08:26;;;;;;;15.30;9.38;;;13.30;99.90;;;;;;5059393;28;20040;-85
2022/05/04 04:10:52;;;;;;;14.50;10.23;;;13.40;99.90;;;;;;5039971;28;20021;-84
2022/05/04 04:13:18;;;;;;;13.27;8.82;;;13.40;99.90;;;;;;5055297;28;20069;-84
2022/05/04 04:15:45;;;;;;;14.23;9.82;;;13.40;99.90;;;;;;5045109;28;20038;-84
2022/05/04 04:18:11;;;;;;;15.75;9.85;;;13.40;99.90;;;;;;5042895;28;20049;-83
2022/05/04 04:23:21;;;;;;;16.42;10.05;;;13.50;99.90;;;;;;5046806;28;20025;-85
2022/05/04 04:25:47;;;;;;;13.68;10.60;;;13.60;99.90;;;;;;5038525;28;20176;-83
2022/05/04 04:28:13;;;;;;;17.13;11.00;;;13.60;99.90;;;;;;5037251;28;20075;-84
2022/05/04 04:30:39;;;;;;;13.75;10.23;;;13.60;99.90;;;;;;5034077;28;20091;-85
2022/05/04 04:33:06;;;;;;;13.07;9.65;;;13.60;99.90;;;;;;5044034;28;20116;-85
2022/05/04 04:35:36;;;;;;;17.25;10.20;;;13.60;99.90;;;;;;5025228;28;20368;-85
2022/05/04 04:38:02;;;;;;;14.20;10.15;;;13.60;99.90;;;;;;5025616;28;20029;-84
2022/05/04 04:40:28;;;;;;;14.88;9.43;;;13.60;99.90;;;;;;5025861;28;20025;-84
2022/05/04 04:42:54;;;;;;;14.90;9.98;;;13.60;99.90;;;;;;5043361;28;20040;-84
2022/05/04 04:45:20;;;;;;;13.68;10.45;;;13.60;99.90;;;;;;5042160;28;20041;-85
2022/05/04 04:47:46;;;;;;;14.40;10.30;;;13.60;99.90;;;;;;5043133;28;20497;-84
2022/05/04 04:50:12;;;;;;;17.10;10.07;;;13.60;99.90;;;;;;5025515;28;20034;-86
2022/05/04 04:52:38;;;;;;;16.45;10.27;;;13.60;99.90;;;;;;5044263;28;20095;-84
2022/05/04 04:55:05;;;;;;;15.63;10.00;;;13.70;99.90;;;;;;5027530;28;20509;-85
2022/05/04 04:57:32;;;;;;;16.02;11.25;;;13.80;99.90;;;;;;5042980;28;20029;-85
2022/05/04 04:59:57;;;;;;;16.15;10.65;;;13.90;99.90;;;;;;5043385;28;20032;-82
2022/05/04 05:02:23;;;;;;;16.88;10.30;;;13.90;99.90;;;;;;5051904;28;20508;-85
2022/05/04 05:04:49;;;;;;;17.58;10.13;;;13.90;99.90;;;;;;5052397;28;20021;-84
2022/05/04 05:07:15;;;;;;;13.48;9.45;;;14.00;99.90;;;;;;5040755;28;20029;-85
2022/05/04 05:09:40;;;;;;;17.48;10.95;;;14.00;99.90;;;;;;5044441;28;20085;-84
2022/05/04 05:12:07;;;;;;;17.42;10.25;;;14.00;99.90;;;;;;5058673;28;20030;-85
2022/05/04 05:17:18;;;;;;;18.08;11.00;;;13.90;99.90;;;;;;5055704;28;20033;-86
2022/05/04 05:19:44;;;;;;;17.50;10.63;;;13.90;99.90;;;;;;5057728;28;20041;-86
2022/05/04 05:22:09;;;;;;;20.48;10.90;;;13.90;99.90;;;;;;5040466;28;20025;-85
2022/05/04 05:24:35;;;;;;;17.27;12.45;;;13.90;99.90;;;;;;5072179;28;20017;-85
2022/05/04 05:27:01;;;;;;;26.85;12.15;;;13.80;99.90;;;;;;5050076;28;20068;-85
2022/05/04 05:29:27;;;;;;;19.70;11.80;;;13.80;99.90;;;;;;5073501;28;20065;-86
2022/05/04 05:31:59;;;;;;;16.25;12.10;;;13.90;99.90;;;;;;5050941;28;20053;-85
2022/05/04 05:34:26;;;;;;;18.27;12.23;;;13.90;99.90;;;;;;5040538;28;20052;-85
2022/05/04 05:36:53;;;;;;;17.80;11.88;;;13.90;99.90;;;;;;5056419;28;20017;-87
2022/05/04 05:39:19;;;;;;;16.60;11.52;;;14.00;99.90;;;;;;5057288;28;20117;-86
2022/05/04 05:41:44;;;;;;;16.60;11.07;;;14.10;99.90;;;;;;5053552;28;20045;-86
2022/05/04 05:44:10;;;;;;;23.98;12.60;;;14.20;99.90;;;;;;5052107;28;20033;-83
2022/05/04 05:46:36;;;;;;;17.95;12.38;;;14.30;99.90;;;;;;5051664;28;20060;-85
2022/05/04 05:49:02;;;;;;;17.25;10.73;;;14.40;99.90;;;;;;5044858;28;20095;-87
2022/05/04 05:51:28;;;;;;;23.00;11.82;;;14.40;99.90;;;;;;5032812;28;20564;-84
2022/05/04 05:53:54;;;;;;;18.33;11.57;;;14.50;99.90;;;;;;5050874;28;20044;-86
2022/05/04 05:56:19;;;;;;;25.60;11.25;;;14.80;99.90;;;;;;5049615;28;20033;-87
2022/05/04 05:58:46;;;;;;;28.42;10.48;;;15.00;99.90;;;;;;5047399;28;20021;-86
2022/05/04 06:01:11;;;;;;;14.45;9.60;;;15.30;99.90;;;;;;5042762;28;20089;-88
2022/05/04 06:03:37;;;;;;;13.65;9.40;;;15.50;99.90;;;;;;5042989;28;20028;-85
2022/05/04 06:06:03;;;;;;;19.90;10.00;;;15.70;99.90;;;;;;5039603;28;20023;-86
2022/05/04 06:08:29;;;;;;;12.40;9.02;;;16.00;99.90;;;;;;5040407;28;20029;-84
2022/05/04 06:10:54;;;;;;;18.33;10.35;;;16.30;99.90;;;;;;5045718;28;20033;-84
2022/05/04 06:13:20;;;;;;;15.77;9.02;;;16.40;99.90;;;;;;5044008;28;20037;-86
2022/05/04 06:15:46;;;;;;;32.40;9.25;;;16.60;99.90;;;;;;5042218;28;20053;-85
2022/05/04 06:18:12;;;;;;;16.85;10.13;;;16.80;99.90;;;;;;5024623;28;20029;-85
2022/05/04 06:20:38;;;;;;;19.33;8.75;;;16.90;99.90;;;;;;5041159;28;20021;-85
2022/05/04 06:23:05;;;;;;;16.67;9.38;;;16.90;99.90;;;;;;5030737;28;20029;-84
2022/05/04 06:25:31;;;;;;;27.58;10.05;;;17.00;99.90;;;;;;5044595;28;20117;-85
2022/05/04 06:27:56;;;;;;;14.05;9.65;;;16.90;99.90;;;;;;5025247;28;20037;-83
2022/05/04 06:35:51;;;;;;;10.73;7.60;;;16.90;99.90;;;;;;5031783;28;20075;-84
2022/05/04 06:38:17;;;;;;;13.30;8.50;;;17.10;99.90;;;;;;5048506;28;20033;-85
2022/05/04 06:40:42;;;;;;;18.75;9.68;;;17.00;99.90;;;;;;5042684;28;20029;-85
2022/05/04 06:43:08;;;;;;;14.52;8.90;;;17.30;99.90;;;;;;5044558;28;20029;-81
2022/05/04 06:45:34;;;;;;;15.15;9.52;;;17.20;99.90;;;;;;5054833;28;20026;-84
2022/05/04 06:48:02;;;;;;;11.18;8.63;;;17.10;99.90;;;;;;5051035;28;20026;-85
2022/05/04 06:50:29;;;;;;;12.07;8.85;;;17.20;99.90;;;;;;5048076;28;20041;-85
2022/05/04 06:52:54;;;;;;;12.40;9.35;;;17.30;99.90;;;;;;5046234;28;20034;-86
2022/05/04 06:55:20;;;;;;;12.40;8.43;;;17.30;99.90;;;;;;5028643;28;20041;-84
2022/05/04 06:57:46;;;;;;;11.57;8.65;;;17.60;99.90;;;;;;5048750;28;20017;-85
2022/05/04 07:00:12;;;;;;;12.35;7.93;;;17.70;99.90;;;;;;5050457;28;20037;-84
2022/05/04 07:02:38;;;;;;;16.08;9.07;;;17.80;99.90;;;;;;5031802;28;20026;-85
2022/05/04 07:05:05;;;;;;;12.82;8.70;;;18.00;99.90;;;;;;5030731;28;20026;-85
2022/05/04 07:07:31;;;;;;;11.93;8.88;;;18.20;99.90;;;;;;5047178;28;20024;-88
2022/05/04 07:09:58;;;;;;;13.00;8.45;;;18.50;99.90;;;;;;5030217;28;20029;-86
2022/05/04 07:12:24;;;;;;;15.13;9.90;;;18.70;99.90;;;;;;5047909;28;20029;-86
2022/05/04 07:14:52;;;;;;;10.95;8.68;;;19.00;99.90;;;;;;5058604;28;20029;-83
2022/05/04 07:17:18;;;;;;;16.60;9.02;;;19.20;99.90;;;;;;5041386;28;20069;-84
2022/05/04 07:19:44;;;;;;;15.52;9.05;;;19.20;99.90;;;;;;5057709;28;20041;-84
2022/05/04 07:22:10;;;;;;;16.30;9.85;;;19.00;99.90;;;;;;5054040;28;20032;-85
2022/05/04 07:24:35;;;;;;;15.60;10.15;;;18.80;99.90;;;;;;5049382;28;20022;-86
2022/05/04 07:27:01;;;;;;;15.05;9.82;;;18.50;99.90;;;;;;5050698;28;20488;-85
2022/05/04 07:29:27;;;;;;;17.35;10.30;;;18.50;99.90;;;;;;5038177;28;20033;-82
2022/05/04 07:31:53;;;;;;;14.90;9.80;;;18.60;99.90;;;;;;5057969;28;20072;-84
2022/05/04 07:34:18;;;;;;;15.02;9.63;;;18.60;99.90;;;;;;5057703;28;20036;-82
2022/05/04 07:36:45;;;;;;;16.80;9.63;;;18.70;99.90;;;;;;5057004;28;20009;-84
2022/05/04 07:44:45;;;;;;;14.40;10.02;;;18.60;99.90;;;;;;5042570;28;20097;-80
2022/05/04 07:47:11;;;;;;;13.45;9.55;;;18.80;99.90;;;;;;5059896;28;20045;-83
2022/05/04 07:49:37;;;;;;;12.18;9.20;;;18.90;99.90;;;;;;5080542;22;20071;-83
2022/05/04 07:52:03;;;;;;;15.13;9.98;;;19.10;99.90;;;;;;5080116;28;20013;-85
2022/05/04 07:54:29;;;;;;;13.57;9.00;;;19.30;99.90;;;;;;5046388;28;20025;-84
2022/05/04 07:56:55;;;;;;;14.85;9.20;;;19.40;99.90;;;;;;5080248;28;20021;-84
2022/05/04 07:59:21;;;;;;;18.17;10.50;;;19.30;99.90;;;;;;5080030;28;20051;-85
2022/05/04 08:04:33;;;;;;;11.73;9.10;;;19.40;99.90;;;;;;5063088;28;20025;-84
2022/05/04 08:06:58;;;;;;;12.75;9.65;;;19.40;99.90;;;;;;5080641;28;20105;-85
2022/05/04 08:09:25;;;;;;;13.98;9.35;;;19.50;99.90;;;;;;5061853;28;20029;-84
2022/05/04 08:11:50;;;;;;;11.25;9.35;;;19.80;99.90;;;;;;5080159;28;20032;-84
2022/05/04 08:14:16;;;;;;;12.52;9.52;;;19.90;99.90;;;;;;5080343;28;20033;-84
2022/05/04 08:16:43;;;;;;;11.90;9.38;;;19.70;99.90;;;;;;5046100;28;20115;-83
2022/05/04 08:19:08;;;;;;;16.88;9.90;;;19.70;99.90;;;;;;5079439;28;20048;-85
2022/05/04 08:21:37;;;;;;;14.45;10.25;;;19.70;99.90;;;;;;5062161;28;20017;-85
2022/05/04 08:24:04;;;;;;;13.73;10.00;;;19.70;99.90;;;;;;5062259;28;20048;-87
2022/05/04 08:26:30;;;;;;;19.42;10.93;;;19.80;99.90;;;;;;5062380;28;20041;-86
2022/05/04 08:28:56;;;;;;;15.23;10.05;;;19.90;99.90;;;;;;5079125;28;20056;-85
2022/05/04 08:31:21;;;;;;;14.82;9.43;;;20.20;99.90;;;;;;5079443;28;20069;-84
2022/05/04 08:33:49;;;;;;;17.40;9.68;;;20.30;99.90;;;;;;5075564;28;20044;-86
2022/05/04 08:36:17;;;;;;;13.95;9.27;;;20.50;99.90;;;;;;5075960;28;20021;-88
2022/05/04 08:38:43;;;;;;;14.77;9.25;;;20.60;99.90;;;;;;5057619;28;20082;-87
2022/05/04 08:41:09;;;;;;;16.13;9.88;;;20.70;99.90;;;;;;5054602;28;20025;-86
2022/05/04 08:43:36;;;;;;;14.90;9.05;;;21.00;99.90;;;;;;5055713;28;20040;-86
2022/05/04 08:46:03;;;;;;;19.75;9.98;;;21.30;99.60;;;;;;5073817;28;20035;-86
2022/05/04 08:48:32;;;;;;;12.77;8.65;;;21.30;99.30;;;;;;5052585;28;20043;-86
2022/05/04 08:51:04;;;;;;;14.65;9.27;;;21.20;99.70;;;;;;5054792;28;20064;-88
2022/05/04 08:53:30;;;;;;;25.50;10.13;;;21.20;99.70;;;;;;5052588;28;20614;-86
2022/05/04 08:55:56;;;;;;;13.30;9.80;;;21.60;98.90;;;;;;5051695;28;20092;-87
2022/05/04 08:58:22;;;;;;;14.35;9.52;;;22.00;98.50;;;;;;5077335;28;20025;-84
2022/05/04 09:00:48;;;;;;;16.42;9.23;;;22.30;97.60;;;;;;5078890;28;20109;-84
2022/05/04 09:03:14;;;;;;;14.77;10.50;;;22.10;97.70;;;;;;5045088;28;20017;-84
2022/05/04 09:05:46;;;;;;;11.95;9.15;;;21.80;97.90;;;;;;5060561;28;20033;-86
2022/05/04 09:08:11;;;;;;;14.90;10.18;;;21.50;97.90;;;;;;5059016;28;20037;-86
2022/05/04 09:10:39;;;;;;;13.80;9.50;;;21.40;98.30;;;;;;5058343;28;20020;-87
2022/05/04 09:13:07;;;;;;;12.20;9.60;;;21.30;98.40;;;;;;5076234;28;20124;-85
2022/05/04 09:15:35;;;;;;;25.73;10.02;;;21.30;98.40;;;;;;5055541;28;20416;-87
2022/05/04 09:18:09;;;;;;;17.60;9.90;;;21.40;98.60;;;;;;5069032;28;20036;-88
2022/05/04 09:20:45;;;;;;;21.05;10.88;;;21.70;98.10;;;;;;5073697;28;20064;-88
2022/05/04 09:23:17;;;;;;;19.02;9.60;;;21.70;97.90;;;;;;5072119;28;20123;-86
2022/05/04 09:25:43;;;;;;;17.45;9.10;;;22.10;97.90;;;;;;5054037;28;20067;-88
2022/05/04 09:28:11;;;;;;;14.32;9.30;;;22.40;97.20;;;;;;5077902;28;20013;-87
2022/05/04 09:30:43;;;;;;;13.20;9.35;;;22.30;96.80;;;;;;5078423;28;20108;-86
2022/05/04 09:33:12;;;;;;;17.45;9.57;;;22.50;96.40;;;;;;5078413;28;20021;-87
2022/05/04 09:35:41;;;;;;;12.18;7.38;;;23.20;96.00;;;;;;5061023;28;20025;-85
2022/05/04 09:46:45;;;;;;;12.95;7.65;;;27.10;88.60;;;;;;5060127;28;20052;-87
2022/05/04 09:49:19;;;;;;;12.18;6.65;;;26.80;87.10;;;;;;5077032;28;20021;-87
2022/05/04 09:51:50;;;;;;;10.48;6.65;;;27.40;84.90;;;;;;5076900;28;20065;-85
2022/05/04 09:54:22;;;;;;;13.00;7.43;;;29.10;80.90;;;;;;5056882;28;20108;-88
2022/05/04 09:57:03;;;;;;;12.13;6.93;;;29.90;76.60;;;;;;5066699;28;20439;-88
2022/05/04 09:59:39;;;;;;;10.80;7.40;;;30.20;74.80;;;;;;5069306;28;20395;-87
2022/05/04 10:02:07;;;;;;;7.32;5.95;;;31.00;71.40;;;;;;5049750;28;20021;-88
2022/05/04 10:04:34;;;;;;;7.43;6.60;;;31.90;69.90;;;;;;5049948;28;20050;-88
2022/05/04 10:07:04;;;;;;;10.63;6.70;;;32.80;66.80;;;;;;5048677;28;20029;-88
2022/05/04 10:09:32;;;;;;;11.23;6.13;;;32.50;65.80;;;;;;5065735;28;20575;-87
2022/05/04 10:11:59;;;;;;;7.55;6.45;;;33.20;64.40;;;;;;5064418;28;20029;-86
2022/05/04 10:14:29;;;;;;;8.73;7.13;;;34.20;62.40;;;;;;5066646;28;20062;-89
2022/05/04 10:17:04;;;;;;;7.45;6.30;;;34.40;60.80;;;;;;5047776;28;20071;-88
2022/05/04 10:19:54;;;;;;;7.78;6.13;;;35.10;60.10;;;;;;5067053;28;20132;-88
2022/05/04 10:22:59;;;;;;;10.10;6.18;;;35.70;59.00;;;;;;5068106;28;20025;-88
2022/05/04 10:25:26;;;;;;;11.00;7.32;;;36.50;56.80;;;;;;5071606;28;20032;-88
2022/05/04 10:28:04;;;;;;;10.65;6.25;;;36.60;55.60;;;;;;5068949;28;20491;-86
2022/05/04 10:30:34;;;;;;;15.50;7.55;;;36.60;55.00;;;;;;5044698;28;20511;-87
2022/05/04 10:33:05;;;;;;;8.32;6.32;;;35.20;55.30;;;;;;5071837;28;20035;-88
2022/05/04 10:35:41;;;;;;;8.98;6.10;;;35.10;55.80;;;;;;5054025;28;20093;-88
2022/05/04 10:38:13;;;;;;;11.70;6.63;;;36.20;55.20;;;;;;5074515;28;20017;-85
2022/05/04 10:40:43;;;;;;;6.28;5.20;;;36.60;53.70;;;;;;5058451;28;20039;-88
2022/05/04 10:43:14;;;;;;;20.00;6.57;;;36.60;53.90;;;;;;5076373;28;20060;-85
2022/05/04 10:45:42;;;;;;;10.95;6.22;;;37.00;52.90;;;;;;5077409;28;20021;-85
2022/05/04 10:48:19;;;;;;;13.32;5.38;;;38.20;52.10;;;;;;5077582;28;20009;-86
2022/05/04 10:51:03;;;;;;;7.93;5.47;;;38.60;51.80;;;;;;5059804;28;20065;-85
2022/05/04 10:53:29;;;;;;;7.80;5.72;;;39.70;50.30;;;;;;5077068;28;20041;-86
2022/05/04 10:55:55;;;;;;;8.18;5.32;;;40.10;49.10;;;;;;5072781;28;20040;-88
2022/05/04 10:58:42;;;;;;;14.95;6.03;;;39.90;48.90;;;;;;5075207;28;20025;-86
2022/05/04 11:01:23;;;;;;;10.05;5.75;;;40.10;48.70;;;;;;5059498;28;20040;-86
2022/05/04 11:04:10;;;;;;;11.35;7.25;;;39.70;48.10;;;;;;5058971;28;20059;-87
2022/05/04 11:06:38;;;;;;;9.02;5.70;;;38.50;48.90;;;;;;5056881;28;20044;-91
2022/05/04 11:09:10;;;;;;;7.20;5.30;;;39.30;48.30;;;;;;5071501;28;20081;-87
2022/05/04 11:11:37;;;;;;;6.40;4.88;;;39.50;48.10;;;;;;5068949;28;20423;-88
2022/05/04 11:14:05;;;;;;;9.55;5.78;;;39.40;48.10;;;;;;5068014;28;20487;-87
2022/05/04 11:16:31;;;;;;;7.25;5.57;;;38.90;47.90;;;;;;5065309;28;20540;-87
2022/05/04 11:19:02;;;;;;;5.22;4.45;;;38.70;48.40;;;;;;5048770;28;20021;-88
2022/05/04 11:21:29;;;;;;;8.40;5.10;;;39.50;48.00;;;;;;5049594;28;20074;-86
2022/05/04 11:23:59;;;;;;;7.25;4.75;;;39.50;47.20;;;;;;5068229;28;20025;-87
2022/05/04 11:26:36;;;;;;;9.38;4.57;;;38.40;47.80;;;;;;5067700;28;20044;-88
2022/05/04 11:29:07;;;;;;;8.90;4.93;;;38.50;48.20;;;;;;5064109;28;20111;-87
2022/05/04 11:31:33;;;;;;;10.77;4.35;;;37.70;48.10;;;;;;5065229;28;20040;-88
2022/05/04 11:33:58;;;;;;;8.82;4.97;;;37.40;48.60;;;;;;5065935;28;20017;-87
2022/05/04 11:36:24;;;;;;;8.68;4.70;;;38.00;48.80;;;;;;5072308;28;20017;-87
2022/05/04 11:38:50;;;;;;;10.82;4.30;;;37.60;48.10;;;;;;5067944;28;20036;-87
2022/05/04 11:41:17;;;;;;;12.30;4.20;;;37.90;48.00;;;;;;5051885;28;20040;-86
2022/05/04 11:43:44;;;;;;;12.88;4.20;;;37.70;48.10;;;;;;5076883;28;20021;-84
2022/05/04 11:46:11;;;;;;;8.75;5.60;;;37.80;48.10;;;;;;5079687;28;20085;-87
2022/05/04 11:48:44;;;;;;;10.70;5.28;;;37.70;47.70;;;;;;5052471;28;20024;-86
2022/05/04 11:51:11;;;;;;;9.52;4.90;;;36.90;48.20;;;;;;5050733;28;20033;-89
2022/05/04 11:53:38;;;;;;;11.55;4.40;;;36.00;49.40;;;;;;5068446;28;20063;-88
2022/05/04 11:56:06;;;;;;;12.10;5.03;;;36.10;49.00;;;;;;5052146;28;20033;-88
2022/05/04 11:58:34;;;;;;;8.30;4.22;;;36.50;48.50;;;;;;5054093;28;20077;-85
2022/05/04 12:01:02;;;;;;;13.23;4.60;;;37.50;48.10;;;;;;5076240;28;20044;-87
2022/05/04 12:03:30;;;;;;;8.82;4.00;;;37.80;47.70;;;;;;5055441;28;20031;-88
2022/05/04 12:05:56;;;;;;;12.38;4.20;;;38.90;46.90;;;;;;5072825;28;20033;-84
2022/05/04 12:08:24;;;;;;;9.15;4.15;;;37.50;47.70;;;;;;5058215;28;20051;-84
2022/05/04 12:10:50;;;;;;;8.93;4.20;;;37.50;47.90;;;;;;5077416;28;20040;-83
2022/05/04 12:13:22;;;;;;;15.18;4.05;;;37.70;47.70;;;;;;5075059;28;20036;-84
2022/05/04 12:15:49;;;;;;;7.45;3.65;;;37.90;47.40;;;;;;5066536;28;20051;-87
2022/05/04 12:18:16;;;;;;;7.25;3.80;;;38.10;46.90;;;;;;5053137;28;20033;-86
2022/05/04 12:20:48;;;;;;;6.28;4.15;;;38.20;46.90;;;;;;5072494;28;20036;-86
2022/05/04 12:23:15;;;;;;;5.78;3.70;;;38.00;46.50;;;;;;5072306;28;20036;-84
2022/05/04 12:25:42;;;;;;;11.90;3.97;;;37.20;47.20;;;;;;5069889;28;20024;-84
2022/05/04 12:28:09;;;;;;;14.70;4.72;;;35.60;48.10;;;;;;5072114;28;20029;-83
2022/05/04 12:33:30;;;;;;;7.63;4.57;;;32.30;51.80;;;;;;5079871;28;20018;-84
2022/05/04 12:35:59;;;;;;;15.98;5.10;;;30.90;53.40;;;;;;5062117;28;20033;-86
2022/05/04 12:38:25;;;;;;;23.83;7.15;;;29.70;55.00;;;;;;5061634;28;20047;-85
2022/05/04 12:40:52;;;;;;;10.02;5.45;;;29.00;56.00;;;;;;5079553;28;20084;-86
2022/05/04 12:43:19;;;;;;;10.02;5.18;;;28.30;56.60;;;;;;5078828;28;20033;-85
2022/05/04 12:45:47;;;;;;;9.55;5.80;;;27.90;57.60;;;;;;5062204;28;20090;-85
2022/05/04 12:48:13;;;;;;;15.50;4.80;;;27.30;57.80;;;;;;5078844;28;20028;-83
2022/05/04 12:50:39;;;;;;;7.80;4.60;;;27.00;57.80;;;;;;5061415;28;20032;-82
2022/05/04 12:53:06;;;;;;;12.93;5.10;;;26.70;58.10;;;;;;5079237;28;20021;-84
2022/05/04 12:58:25;;;;;;;9.77;5.10;;;25.60;59.20;;;;;;5068860;28;20037;-86
2022/05/04 13:00:50;;;;;;;10.18;4.40;;;25.20;60.00;;;;;;5070606;28;20116;-85
2022/05/04 13:03:16;;;;;;;7.03;4.30;;;25.00;60.00;;;;;;5077947;28;20028;-83
2022/05/04 13:05:42;;;;;;;19.73;3.20;;;24.80;60.00;;;;;;5077668;28;20032;-84
2022/05/04 13:08:08;;;;;;;19.60;4.40;;;24.00;59.00;;;;;;5058599;28;20040;-83
2022/05/04 13:10:37;;;;;;;13.45;3.38;;;23.40;60.50;;;;;;5060301;28;20071;-83
2022/05/04 13:13:04;;;;;;;10.20;2.80;;;22.80;61.70;;;;;;5073796;28;20017;-84
2022/05/04 13:15:33;;;;;;;14.65;4.25;;;22.60;62.80;;;;;;5077092;28;20005;-83